Decoded Metar for SBKP (CAMPINAS in BRAZIL) (IATA:VCP) | Meteo·Mobile Aviation Weather
aviador You're here:

SBKP Decoded Metar

CAMPINAS in BRAZIL
Report Time2018-09-24 07:00:00
UTC Time2018-09-24 07:13:28
Flight Rules vfr VFR
Wind120° at 12 kt
W.Decomp.*RWY 15: 11.8 kt HW 2.1 kt LCW
W.Rank120° ranks 1
Current wind is above 120° avg. (9.1)
Visibility9999 m
Phenomena:N/A
Clouds:N/A
Expected CloudBase > 4,800 ft AGL from Temp-Dew spread
CeilingNone
Temp19°C (ISA +8)
Dew Point07°C (46% RH)
AAT14.0°C
QNH1014 hPa
Density Alt3,245 ft
Elevation2,169 ft
Report Wrong Elevation
Raw Report
SBKP 240700Z 12012KT CAVOK 19/07 Q1014=

Extra information for SBKP:More info

Metar Taf Metar & Taf Last 4 Metars F.Rules Stats Wind Profile Meteogram Temp Stats Airport Information Weather charts Add Link Nearby VenuesMetar ALERT Operation Metar Decoded Social comments